createdAt,value
2023-01-22T00:00:19.167Z,29.15
2023-01-22T00:02:48.893Z,30.77
2023-01-22T00:05:16.319Z,31.30
2023-01-22T00:07:43.612Z,30.20
2023-01-22T00:10:13.332Z,30.00
2023-01-22T00:12:40.878Z,30.17
2023-01-22T00:15:08.822Z,27.40
2023-01-22T00:17:37.086Z,27.98
2023-01-22T00:20:04.809Z,28.35
2023-01-22T00:22:32.195Z,28.95
2023-01-22T00:24:59.609Z,25.77
2023-01-22T00:27:28.275Z,26.15
2023-01-22T00:29:55.661Z,25.25
2023-01-22T00:32:23.069Z,25.85
2023-01-22T00:34:52.512Z,26.08
2023-01-22T00:37:20.200Z,23.73
2023-01-22T00:39:47.501Z,24.08
2023-01-22T00:42:16.451Z,24.77
2023-01-22T00:44:45.356Z,23.02
2023-01-22T00:47:12.663Z,22.63
2023-01-22T00:49:39.972Z,23.52
2023-01-22T00:52:07.509Z,22.90
2023-01-22T00:54:35.067Z,22.55
2023-01-22T00:57:02.580Z,21.95
2023-01-22T00:59:30.256Z,20.55
2023-01-22T01:01:58.995Z,24.42
2023-01-22T01:04:26.356Z,21.85
2023-01-22T01:06:53.713Z,19.88
2023-01-22T01:09:21.405Z,21.38
2023-01-22T01:11:49.027Z,20.00
2023-01-22T01:14:16.643Z,20.33
2023-01-22T01:16:44.206Z,20.08
2023-01-22T01:19:13.045Z,20.85
2023-01-22T01:21:40.329Z,20.90
2023-01-22T01:24:08.123Z,22.60
2023-01-22T01:26:35.453Z,19.75
2023-01-22T01:29:04.206Z,18.23
2023-01-22T01:31:31.591Z,18.65
2023-01-22T01:33:58.974Z,18.42
2023-01-22T01:36:47.096Z,21.58
2023-01-22T01:39:14.780Z,22.55
2023-01-22T01:41:42.151Z,21.88
2023-01-22T01:44:10.943Z,23.27
2023-01-22T01:46:41.382Z,23.88
2023-01-22T01:49:12.026Z,22.88
2023-01-22T01:51:41.635Z,24.85
2023-01-22T01:54:08.967Z,23.77
2023-01-22T01:56:38.852Z,27.27
2023-01-22T01:59:08.555Z,24.80
2023-01-22T02:01:39.535Z,28.23
2023-01-22T02:04:07.361Z,28.05
2023-01-22T02:06:34.903Z,27.05
2023-01-22T02:09:03.806Z,26.85
2023-01-22T02:11:31.710Z,26.80
2023-01-22T02:14:01.177Z,26.42
2023-01-22T02:16:28.784Z,23.67
2023-01-22T02:18:56.443Z,27.05
2023-01-22T02:21:41.744Z,25.58
2023-01-22T02:24:12.000Z,27.75
2023-01-22T02:26:40.484Z,29.40
2023-01-22T02:29:08.789Z,26.15
2023-01-22T02:31:36.793Z,26.20
2023-01-22T02:34:05.754Z,28.00
2023-01-22T02:36:35.011Z,27.98
2023-01-22T02:39:02.296Z,26.00
2023-01-22T02:41:30.989Z,27.25
2023-01-22T02:43:58.390Z,25.40
2023-01-22T02:46:26.183Z,27.08
2023-01-22T02:48:53.764Z,26.25
2023-01-22T02:51:21.177Z,27.50
2023-01-22T02:53:48.500Z,28.23
2023-01-22T02:56:15.888Z,28.88
2023-01-22T02:58:44.519Z,28.90
2023-01-22T03:01:18.762Z,27.75
2023-01-22T03:03:46.756Z,26.52
2023-01-22T03:06:15.483Z,25.98
2023-01-22T03:08:43.450Z,27.27
2023-01-22T03:11:11.097Z,27.83
2023-01-22T03:13:55.918Z,26.42
2023-01-22T03:16:42.473Z,27.50
2023-01-22T03:19:27.555Z,26.55
2023-01-22T03:21:54.935Z,26.73
2023-01-22T03:24:22.242Z,27.58
2023-01-22T03:26:49.589Z,29.95
2023-01-22T03:29:19.025Z,27.35
2023-01-22T03:31:48.535Z,26.80
2023-01-22T03:34:16.288Z,26.10
2023-01-22T03:36:44.353Z,29.50
2023-01-22T03:39:11.719Z,27.15
2023-01-22T03:41:39.333Z,28.45
2023-01-22T03:44:09.144Z,28.00
2023-01-22T03:46:36.474Z,28.52
2023-01-22T03:49:05.176Z,28.40
2023-01-22T03:51:32.563Z,27.17
2023-01-22T03:54:00.602Z,29.63
2023-01-22T03:56:28.372Z,27.90
2023-01-22T03:58:56.210Z,27.05
2023-01-22T04:01:24.673Z,27.73
2023-01-22T04:03:52.389Z,26.88
2023-01-22T04:06:21.592Z,27.52
2023-01-22T04:08:49.909Z,27.83
2023-01-22T04:11:18.348Z,26.30
2023-01-22T04:13:47.484Z,24.60
2023-01-22T04:16:15.175Z,27.15
2023-01-22T04:18:43.554Z,26.73
2023-01-22T04:21:10.942Z,27.40
2023-01-22T04:23:39.579Z,26.50
2023-01-22T04:26:07.144Z,28.33
2023-01-22T04:28:34.441Z,28.95
2023-01-22T04:31:02.519Z,28.23
2023-01-22T04:33:29.951Z,29.17
2023-01-22T04:35:58.020Z,29.30
2023-01-22T04:38:25.355Z,28.17
2023-01-22T04:40:54.506Z,25.67
2023-01-22T04:43:22.043Z,27.10
2023-01-22T04:45:50.510Z,27.77
2023-01-22T04:48:18.631Z,26.02
2023-01-22T04:50:46.609Z,24.92
2023-01-22T04:53:14.175Z,26.80
2023-01-22T04:55:41.878Z,25.20
2023-01-22T04:58:10.605Z,25.63
2023-01-22T05:00:38.254Z,26.55
2023-01-22T05:03:06.120Z,25.98
2023-01-22T05:05:34.374Z,25.08
2023-01-22T05:08:01.707Z,25.73
2023-01-22T05:10:29.588Z,24.55
2023-01-22T05:12:57.343Z,25.10
2023-01-22T05:15:26.049Z,26.35
2023-01-22T05:17:53.941Z,25.42
2023-01-22T05:20:21.557Z,24.13
2023-01-22T05:22:49.037Z,25.80
2023-01-22T05:25:16.425Z,23.95
2023-01-22T05:27:43.739Z,26.05
2023-01-22T05:30:11.842Z,24.15
2023-01-22T05:32:42.409Z,23.85
2023-01-22T05:35:10.190Z,25.25
2023-01-22T05:37:37.557Z,23.50
2023-01-22T05:40:05.283Z,24.92
2023-01-22T05:42:33.031Z,24.48
2023-01-22T05:45:01.219Z,24.55
2023-01-22T05:47:29.819Z,22.50
2023-01-22T05:49:58.877Z,25.00
2023-01-22T05:52:26.200Z,24.33
2023-01-22T05:54:53.772Z,23.40
2023-01-22T05:57:21.133Z,25.02
2023-01-22T05:59:48.422Z,23.05
2023-01-22T06:02:15.802Z,24.63
2023-01-22T06:04:43.102Z,22.85
2023-01-22T06:07:11.997Z,25.70
2023-01-22T06:09:39.952Z,25.33
2023-01-22T06:12:07.558Z,24.60
2023-01-22T06:14:35.194Z,26.02
2023-01-22T06:17:02.635Z,23.52
2023-01-22T06:19:30.011Z,23.88
2023-01-22T06:21:57.289Z,24.25
2023-01-22T06:24:25.927Z,24.30
2023-01-22T06:26:53.244Z,25.45
2023-01-22T06:29:20.883Z,25.10
2023-01-22T06:31:48.379Z,22.85
2023-01-22T06:34:16.223Z,24.70
2023-01-22T06:36:43.734Z,24.92
2023-01-22T06:39:11.456Z,23.67
2023-01-22T06:41:40.163Z,25.15
2023-01-22T06:44:08.038Z,24.92
2023-01-22T06:46:35.668Z,25.98
2023-01-22T06:49:03.179Z,24.85
2023-01-22T06:51:30.908Z,24.70
2023-01-22T06:53:58.280Z,26.23
2023-01-22T06:56:25.666Z,26.23
2023-01-22T06:58:54.370Z,27.75
2023-01-22T07:01:21.745Z,27.02
2023-01-22T07:03:49.396Z,25.00
2023-01-22T07:06:18.698Z,26.10
2023-01-22T07:08:46.268Z,24.83
2023-01-22T07:11:15.198Z,27.67
2023-01-22T07:13:42.800Z,25.17
2023-01-22T07:16:12.732Z,26.42
2023-01-22T07:18:40.422Z,28.20
2023-01-22T07:21:08.300Z,27.75
2023-01-22T07:23:35.684Z,25.52
2023-01-22T07:26:02.968Z,26.02
2023-01-22T07:28:30.316Z,27.10
2023-01-22T07:30:57.831Z,25.52
2023-01-22T07:33:29.945Z,26.95
2023-01-22T07:35:57.649Z,26.92
2023-01-22T07:38:25.228Z,26.75
2023-01-22T07:40:53.513Z,26.23
2023-01-22T07:43:20.865Z,26.45
2023-01-22T07:45:48.271Z,24.90
2023-01-22T07:48:15.575Z,25.77
2023-01-22T07:50:44.473Z,27.48
2023-01-22T07:53:12.016Z,25.70
2023-01-22T07:55:39.444Z,26.52
2023-01-22T07:58:07.706Z,25.15
2023-01-22T08:00:36.159Z,26.65
2023-01-22T08:03:05.235Z,24.58
2023-01-22T08:05:32.590Z,25.73
2023-01-22T08:08:01.262Z,25.52
2023-01-22T08:10:31.111Z,24.98
2023-01-22T08:12:58.492Z,26.25
2023-01-22T08:15:25.861Z,26.92
2023-01-22T08:17:53.225Z,26.30
2023-01-22T08:20:21.243Z,28.08
2023-01-22T08:22:48.966Z,25.58
2023-01-22T08:25:17.713Z,27.17
2023-01-22T08:27:45.111Z,26.50
2023-01-22T08:30:12.972Z,25.40
2023-01-22T08:32:41.129Z,26.90
2023-01-22T08:35:09.012Z,25.10
2023-01-22T08:37:39.568Z,24.85
2023-01-22T08:40:08.409Z,29.33
2023-01-22T08:42:37.073Z,26.45
2023-01-22T08:45:04.821Z,25.63
2023-01-22T08:47:32.165Z,27.38
2023-01-22T08:49:59.584Z,24.25
2023-01-22T08:52:26.906Z,22.73
2023-01-22T08:54:54.419Z,23.00
2023-01-22T08:57:21.718Z,24.27
2023-01-22T09:00:00.828Z,29.13
2023-01-22T09:02:28.845Z,24.58
2023-01-22T09:04:56.434Z,23.85
2023-01-22T09:07:23.874Z,23.98
2023-01-22T09:09:51.273Z,22.00
2023-01-22T09:12:18.634Z,23.17
2023-01-22T09:14:46.009Z,23.08
2023-01-22T09:17:17.412Z,21.45
2023-01-22T09:19:44.949Z,21.50
2023-01-22T09:22:12.240Z,22.70
2023-01-22T09:24:39.787Z,23.30
2023-01-22T09:27:08.986Z,22.10
2023-01-22T09:29:36.735Z,21.95
2023-01-22T09:32:04.447Z,23.08
2023-01-22T09:34:33.271Z,21.70
2023-01-22T09:37:02.620Z,22.98
2023-01-22T09:39:29.904Z,22.45
2023-01-22T09:41:59.500Z,22.38
2023-01-22T09:44:29.464Z,22.73
2023-01-22T09:46:58.496Z,21.42
2023-01-22T09:49:29.297Z,23.63
2023-01-22T09:51:59.753Z,24.77
2023-01-22T09:54:28.985Z,24.35
2023-01-22T09:56:58.323Z,24.88
2023-01-22T09:59:27.869Z,25.75
2023-01-22T10:01:57.098Z,25.58
2023-01-22T10:04:28.580Z,26.13
2023-01-22T10:06:57.370Z,24.92
2023-01-22T10:09:30.366Z,28.80
2023-01-22T10:11:59.251Z,27.40
2023-01-22T10:14:28.506Z,27.70
2023-01-22T10:16:56.573Z,27.95
2023-01-22T10:19:25.052Z,28.83
2023-01-22T10:21:54.532Z,27.88
2023-01-22T10:24:21.922Z,27.10
2023-01-22T10:26:54.081Z,27.98
2023-01-22T10:29:25.944Z,27.33
2023-01-22T10:31:55.597Z,28.90
2023-01-22T10:34:27.240Z,27.27
2023-01-22T10:36:55.101Z,26.65
2023-01-22T10:39:22.643Z,28.85
2023-01-22T10:41:52.212Z,27.63
2023-01-22T10:44:21.752Z,29.33
2023-01-22T10:46:50.732Z,28.90
2023-01-22T10:49:19.578Z,28.33
2023-01-22T10:51:50.163Z,27.30
2023-01-22T10:54:20.415Z,28.77
2023-01-22T10:57:04.769Z,28.23
2023-01-22T10:59:32.518Z,26.85
2023-01-22T11:02:00.467Z,27.95
2023-01-22T11:04:28.592Z,26.33
2023-01-22T11:06:58.775Z,28.88
2023-01-22T11:09:28.941Z,28.02
2023-01-22T11:12:03.270Z,27.20
2023-01-22T11:14:33.185Z,26.88
2023-01-22T11:17:04.120Z,25.98
2023-01-22T11:19:40.174Z,25.17
2023-01-22T11:22:12.969Z,26.65
2023-01-22T11:24:47.068Z,28.77
2023-01-22T11:27:38.657Z,27.48
2023-01-22T11:30:21.120Z,25.45
2023-01-22T11:32:54.030Z,24.50
2023-01-22T11:35:24.647Z,24.77
2023-01-22T11:38:02.540Z,25.55
2023-01-22T11:40:30.642Z,28.45
2023-01-22T11:43:08.920Z,27.27
2023-01-22T11:45:55.479Z,26.90
2023-01-22T11:48:30.480Z,27.38
2023-01-22T11:51:02.109Z,27.95
2023-01-22T11:53:38.228Z,26.10
2023-01-22T11:56:18.847Z,26.75
2023-01-22T11:58:52.233Z,26.83
2023-01-22T12:01:25.913Z,28.73
2023-01-22T12:04:14.236Z,27.13
2023-01-22T12:06:47.810Z,28.00
2023-01-22T12:09:20.123Z,28.85
2023-01-22T12:11:53.801Z,27.88
2023-01-22T12:14:47.078Z,26.02
2023-01-22T12:17:23.833Z,26.45
2023-01-22T12:20:15.004Z,28.27
2023-01-22T12:22:44.792Z,27.98
2023-01-22T12:25:17.421Z,26.60
2023-01-22T12:27:47.957Z,26.42
2023-01-22T12:30:18.887Z,26.83
2023-01-22T12:32:50.454Z,27.65
2023-01-22T12:35:21.095Z,27.33
2023-01-22T12:37:49.954Z,27.00
2023-01-22T12:40:24.896Z,27.02
2023-01-22T12:42:57.247Z,28.48
2023-01-22T12:45:28.547Z,28.30
2023-01-22T12:48:00.415Z,26.63
2023-01-22T12:50:28.060Z,26.92
2023-01-22T12:52:59.544Z,26.50
2023-01-22T12:55:32.268Z,24.38
2023-01-22T12:57:59.859Z,25.35
2023-01-22T13:00:31.665Z,25.80
2023-01-22T13:02:59.385Z,24.33
2023-01-22T13:05:37.808Z,23.85
2023-01-22T13:08:06.432Z,25.02
2023-01-22T13:10:34.727Z,23.17
2023-01-22T13:13:03.132Z,24.15
2023-01-22T13:15:32.726Z,23.92
2023-01-22T13:18:07.136Z,21.63
2023-01-22T13:20:36.453Z,22.70
2023-01-22T13:23:05.893Z,22.75
2023-01-22T13:25:34.000Z,22.15
2023-01-22T13:28:02.839Z,23.08
2023-01-22T13:30:31.059Z,23.45
2023-01-22T13:33:06.974Z,23.67
2023-01-22T13:35:36.033Z,22.85
2023-01-22T13:38:03.329Z,23.40
2023-01-22T13:40:42.788Z,23.95
2023-01-22T13:43:18.835Z,22.92
2023-01-22T13:45:46.622Z,21.38
2023-01-22T13:48:17.944Z,24.73
2023-01-22T13:50:52.421Z,23.42
2023-01-22T13:53:24.667Z,22.00
2023-01-22T13:55:52.257Z,23.45
2023-01-22T13:58:46.491Z,23.13
2023-01-22T14:01:26.540Z,23.30
2023-01-22T14:04:00.823Z,22.70
2023-01-22T14:06:28.586Z,23.02
2023-01-22T14:08:56.951Z,23.50
2023-01-22T14:11:24.400Z,22.10
2023-01-22T14:13:52.509Z,25.85
2023-01-22T14:16:19.897Z,23.95
2023-01-22T14:18:47.308Z,23.02
2023-01-22T14:21:16.455Z,23.88
2023-01-22T14:23:46.162Z,23.73
2023-01-22T14:26:13.649Z,23.40
2023-01-22T14:28:41.032Z,25.05
2023-01-22T14:31:08.392Z,26.52
2023-01-22T14:33:35.757Z,24.20
2023-01-22T14:36:03.025Z,24.15
2023-01-22T14:38:31.659Z,24.10
2023-01-22T14:40:58.979Z,24.30
2023-01-22T14:43:26.414Z,23.30
2023-01-22T14:45:54.910Z,24.65
2023-01-22T14:48:23.044Z,25.10
2023-01-22T14:50:50.987Z,24.48
2023-01-22T14:53:19.138Z,25.88
2023-01-22T14:55:47.831Z,25.00
2023-01-22T14:58:16.104Z,26.13
2023-01-22T15:00:44.365Z,27.73
2023-01-22T15:03:11.936Z,28.42
2023-01-22T15:05:39.990Z,28.25
2023-01-22T15:08:07.383Z,27.65
2023-01-22T15:10:34.834Z,28.65
2023-01-22T15:13:03.476Z,29.20
2023-01-22T15:15:30.773Z,28.20
2023-01-22T15:17:58.317Z,29.15
2023-01-22T15:20:26.003Z,27.98
2023-01-22T15:22:53.705Z,27.42
2023-01-22T15:25:21.318Z,28.05
2023-01-22T15:27:48.858Z,28.35
2023-01-22T15:30:18.332Z,29.02
2023-01-22T15:32:46.136Z,27.42
2023-01-22T15:35:13.578Z,28.23
2023-01-22T15:37:41.151Z,29.65
2023-01-22T15:40:10.027Z,28.70
2023-01-22T15:42:37.720Z,26.85
2023-01-22T15:45:05.551Z,26.38
2023-01-22T15:47:34.453Z,27.30
2023-01-22T15:50:01.759Z,29.90
2023-01-22T15:52:29.073Z,27.88
2023-01-22T15:54:56.666Z,28.25
2023-01-22T15:57:24.258Z,28.23
2023-01-22T15:59:51.626Z,28.33
2023-01-22T16:02:19.076Z,27.83
2023-01-22T16:04:48.001Z,26.65
2023-01-22T16:07:15.302Z,25.83
2023-01-22T16:09:42.646Z,26.40
2023-01-22T16:12:10.004Z,26.63
2023-01-22T16:14:37.424Z,25.70
2023-01-22T16:17:05.450Z,26.25
2023-01-22T16:19:32.794Z,26.42
2023-01-22T16:22:02.144Z,26.85
2023-01-22T16:24:29.701Z,26.83
2023-01-22T16:26:57.114Z,32.70
2023-01-22T16:29:24.476Z,28.00
2023-01-22T16:31:52.209Z,28.58
2023-01-22T16:34:21.932Z,28.23
2023-01-22T16:36:50.252Z,27.83
2023-01-22T16:39:22.256Z,27.85
2023-01-22T16:41:50.449Z,27.70
2023-01-22T16:44:18.417Z,28.73
2023-01-22T16:46:46.467Z,27.17
2023-01-22T16:49:15.411Z,28.25
2023-01-22T16:51:43.900Z,27.27
2023-01-22T16:54:13.076Z,28.92
2023-01-22T16:56:42.577Z,29.08
2023-01-22T16:59:10.630Z,29.58
2023-01-22T17:01:40.967Z,28.42
2023-01-22T17:04:11.131Z,29.38
2023-01-22T17:06:40.431Z,29.35
2023-01-22T17:09:07.795Z,28.77
2023-01-22T17:11:35.161Z,29.05
2023-01-22T17:14:06.280Z,30.02
2023-01-22T17:16:34.980Z,28.63
2023-01-22T17:19:03.015Z,30.52
2023-01-22T17:21:31.014Z,28.65
2023-01-22T17:23:58.346Z,27.98
2023-01-22T17:26:25.675Z,27.92
2023-01-22T17:28:53.181Z,30.52
2023-01-22T17:31:26.779Z,27.23
2023-01-22T17:33:55.932Z,29.73
2023-01-22T17:36:24.360Z,28.63
2023-01-22T17:38:52.382Z,27.95
2023-01-22T17:41:20.935Z,29.00
2023-01-22T17:43:50.593Z,29.38
2023-01-22T17:46:18.872Z,29.08
2023-01-22T17:48:48.386Z,31.52
2023-01-22T17:51:17.181Z,31.48
2023-01-22T17:53:47.628Z,28.80
2023-01-22T17:56:16.271Z,30.58
2023-01-22T17:58:44.991Z,30.95
2023-01-22T18:01:13.174Z,31.15
2023-01-22T18:03:40.523Z,33.97
2023-01-22T18:06:10.253Z,31.63
2023-01-22T18:08:39.346Z,33.53
2023-01-22T18:11:07.633Z,31.15
2023-01-22T18:13:35.044Z,31.15
2023-01-22T18:16:02.744Z,32.85
2023-01-22T18:18:30.177Z,35.95
2023-01-22T18:20:57.724Z,32.22
2023-01-22T18:23:26.804Z,32.53
2023-01-22T18:25:58.184Z,31.95
2023-01-22T18:28:26.525Z,34.83
2023-01-22T18:30:54.764Z,36.08
2023-01-22T18:33:22.365Z,33.83
2023-01-22T18:35:50.654Z,36.50
2023-01-22T18:38:20.637Z,37.58
2023-01-22T18:40:49.629Z,35.47
2023-01-22T18:43:16.965Z,46.58
2023-01-22T18:45:44.267Z,71.43
2023-01-22T18:48:13.007Z,41.30
2023-01-22T18:50:40.706Z,36.42
2023-01-22T18:53:09.476Z,34.38
2023-01-22T18:55:37.567Z,34.30
2023-01-22T18:58:21.514Z,33.25
2023-01-22T19:00:48.933Z,34.33
2023-01-22T19:03:16.268Z,33.33
2023-01-22T19:05:43.592Z,35.30
2023-01-22T19:08:10.933Z,35.30
2023-01-22T19:10:38.237Z,34.08
2023-01-22T19:13:06.884Z,35.78
2023-01-22T19:15:34.166Z,35.65
2023-01-22T19:18:01.904Z,35.47
2023-01-22T19:20:29.475Z,34.75
2023-01-22T19:22:56.869Z,33.03
2023-01-22T19:25:24.179Z,34.25
2023-01-22T19:27:51.527Z,37.10
2023-01-22T19:30:20.882Z,36.58
2023-01-22T19:32:48.176Z,36.05
2023-01-22T19:35:15.490Z,38.63
2023-01-22T19:37:42.885Z,42.35
2023-01-22T19:40:13.395Z,37.88
2023-01-22T19:42:43.037Z,36.03
2023-01-22T19:45:10.527Z,35.00
2023-01-22T19:47:39.203Z,37.05
2023-01-22T19:50:14.499Z,37.72
2023-01-22T19:52:42.752Z,35.88
2023-01-22T19:55:10.598Z,35.90
2023-01-22T19:57:38.109Z,35.72
2023-01-22T20:00:06.740Z,35.08
2023-01-22T20:02:34.064Z,36.47
2023-01-22T20:05:02.899Z,35.95
2023-01-22T20:07:30.588Z,36.08
2023-01-22T20:09:57.964Z,37.05
2023-01-22T20:12:25.562Z,36.28
2023-01-22T20:14:52.994Z,35.75
2023-01-22T20:17:20.308Z,36.90
2023-01-22T20:19:47.615Z,34.33
2023-01-22T20:22:16.402Z,35.60
2023-01-22T20:24:43.938Z,33.70
2023-01-22T20:27:11.771Z,35.85
2023-01-22T20:29:39.347Z,35.13
2023-01-22T20:32:07.238Z,34.08
2023-01-22T20:34:34.641Z,36.85
2023-01-22T20:37:01.983Z,35.88
2023-01-22T20:39:30.661Z,37.63
2023-01-22T20:41:58.241Z,36.38
2023-01-22T20:44:25.758Z,36.90
2023-01-22T20:46:53.191Z,37.08
2023-01-22T20:49:21.521Z,35.50
2023-01-22T20:51:48.895Z,36.17
2023-01-22T20:54:18.254Z,52.78
2023-01-22T20:56:50.190Z,49.45
2023-01-22T20:59:19.191Z,37.55
2023-01-22T21:01:46.826Z,37.70
2023-01-22T21:04:14.454Z,37.40
2023-01-22T21:06:42.402Z,34.90
2023-01-22T21:09:10.498Z,37.33
2023-01-22T21:11:41.154Z,36.45
2023-01-22T21:14:15.681Z,37.67
2023-01-22T21:16:45.767Z,35.08
2023-01-22T21:19:17.303Z,35.45
2023-01-22T21:21:48.150Z,35.15
2023-01-22T21:24:15.755Z,37.13
2023-01-22T21:26:43.440Z,35.13
2023-01-22T21:29:14.438Z,34.22
2023-01-22T21:31:42.052Z,37.40
2023-01-22T21:34:10.540Z,36.53
2023-01-22T21:36:40.313Z,34.75
2023-01-22T21:39:08.491Z,35.75
2023-01-22T21:41:35.914Z,35.97
2023-01-22T21:44:20.898Z,35.55
2023-01-22T21:49:18.359Z,32.80
2023-01-22T21:51:47.513Z,36.25
2023-01-22T21:54:15.743Z,36.50
2023-01-22T21:56:43.061Z,34.88
2023-01-22T21:59:10.991Z,35.08
2023-01-22T22:01:38.638Z,36.08
2023-01-22T22:04:07.155Z,36.42
2023-01-22T22:06:36.838Z,36.65
2023-01-22T22:09:05.829Z,34.47
2023-01-22T22:11:33.261Z,35.80
2023-01-22T22:14:00.629Z,34.35
2023-01-22T22:16:28.044Z,37.08
2023-01-22T22:18:56.387Z,43.70
2023-01-22T22:21:23.678Z,35.92
2023-01-22T22:23:52.425Z,39.00
2023-01-22T22:26:19.825Z,38.22
2023-01-22T22:28:47.095Z,38.15
2023-01-22T22:31:14.971Z,39.35
2023-01-22T22:33:42.737Z,42.63
2023-01-22T22:36:13.080Z,42.78
2023-01-22T22:38:40.761Z,44.45
2023-01-22T22:41:11.734Z,41.97
2023-01-22T22:43:39.986Z,41.10
2023-01-22T22:46:09.038Z,47.10
2023-01-22T22:48:36.388Z,40.47
2023-01-22T22:51:10.386Z,53.10
2023-01-22T22:53:38.357Z,52.72
2023-01-22T22:56:06.184Z,45.40
2023-01-22T22:58:35.044Z,41.20
2023-01-22T23:01:06.158Z,37.85
2023-01-22T23:03:33.701Z,40.33
2023-01-22T23:06:04.394Z,38.63
2023-01-22T23:08:31.823Z,37.65
2023-01-22T23:10:59.192Z,39.38
2023-01-22T23:13:26.530Z,37.63
2023-01-22T23:15:59.264Z,36.72
2023-01-22T23:18:26.846Z,38.47
2023-01-22T23:20:54.534Z,38.97
2023-01-22T23:23:21.855Z,36.03
2023-01-22T23:25:49.178Z,36.03
2023-01-22T23:28:17.234Z,35.90
2023-01-22T23:30:44.570Z,35.92
2023-01-22T23:33:13.243Z,35.38
2023-01-22T23:35:40.556Z,32.95
2023-01-22T23:38:08.172Z,34.25
2023-01-22T23:40:35.699Z,33.97
2023-01-22T23:43:03.305Z,36.05
2023-01-22T23:45:30.904Z,34.50
2023-01-22T23:47:58.311Z,32.95
2023-01-22T23:50:28.001Z,31.77
2023-01-22T23:52:55.298Z,33.15
2023-01-22T23:55:22.617Z,34.95
2023-01-22T23:57:50.125Z,31.38
